Capitol Logistics 2182

Operating for AJT



KMCO
Orlando International Airport
Orlando, Florida
TJSJ
Luis Munoz Marin International Airport
San Juan,

Activity Log

Date Flight Route Aircraft Duration
04/06/2022 CPX2182 DDANY2 JIPOD VENDS Y185 CVIKK Y585 ELMUC BEANO3 B763 2h 35m
04/14/2021 CPX2182 DEARY TRV VENDS RENAH PLING RTE7 SJU B763 2h 35m

Route Details

Aircraft Information
Group: Boeing Common
Types: B752,B762,B763
Route Data
Demand: M
Distance: 1034nm
Duration: 2h 16m
Recm'd Route: DEARY TRV VENDS RENAH PLING RTE7 SJU
Origin Wx: KMCO 270553Z 14008KT 10SM SCT210 BKN250 24/21 A3001 RMK AO2 SLP160 T02440211 10283 20244 58019
Dest. Wx: TJSJ 270556Z 10005KT 10SM FEW028 25/23 A3003 RMK AO2 SLP166 T02500228 10267 20250 58016
Notes:

Financial History
Total Freight: 149,571lbs
Average Load: 74,786lbs/flt
Fuel Used: 50,973lbs
Avg. Fuel Used: 25,487lbs/flt
Fuel Expense: $38,053
Avg. Fuel Expense: $19,027
Avg. Fuel Cost: $0.72/lbs
Total Gross Income: $428,483
Pilot Pay: $498
Total Expenses: $60,517
Total Revenue: $328,681
Average Revenue: $214,241.68